createdAt,value
2018-08-18T00:02:24.190Z,99.90
2018-08-18T00:04:51.569Z,99.90
2018-08-18T00:07:21.070Z,99.90
2018-08-18T00:09:49.138Z,99.90
2018-08-18T00:12:22.205Z,99.90
2018-08-18T00:14:49.601Z,99.90
2018-08-18T00:17:16.987Z,99.90
2018-08-18T00:19:44.377Z,99.90
2018-08-18T00:22:11.766Z,99.90
2018-08-18T00:24:45.214Z,99.90
2018-08-18T00:27:13.319Z,99.90
2018-08-18T00:29:40.697Z,99.90
2018-08-18T00:32:08.077Z,99.90
2018-08-18T00:34:39.460Z,99.90
2018-08-18T00:37:06.898Z,99.90
2018-08-18T00:39:34.293Z,99.90
2018-08-18T00:42:01.671Z,99.90
2018-08-18T00:44:29.065Z,99.90
2018-08-18T00:46:56.461Z,99.90
2018-08-18T00:49:23.838Z,99.90
2018-08-18T00:51:51.250Z,99.90
2018-08-18T00:54:18.645Z,99.90
2018-08-18T00:56:46.042Z,99.90
2018-08-18T00:59:14.173Z,99.90
2018-08-18T01:01:42.037Z,99.90
2018-08-18T01:04:10.087Z,99.90
2018-08-18T01:06:39.536Z,99.90
2018-08-18T01:09:09.823Z,99.90
2018-08-18T01:11:38.128Z,99.90
2018-08-18T01:14:13.750Z,99.90
2018-08-18T01:16:47.362Z,99.90
2018-08-18T01:19:15.434Z,99.90
2018-08-18T01:21:49.123Z,99.90
2018-08-18T01:24:16.512Z,99.90
2018-08-18T01:26:43.905Z,99.90
2018-08-18T01:29:12.445Z,99.90
2018-08-18T01:31:39.861Z,99.90
2018-08-18T01:34:07.394Z,99.90
2018-08-18T01:36:34.785Z,99.90
2018-08-18T01:39:02.198Z,99.90
2018-08-18T01:41:29.802Z,99.90
2018-08-18T01:44:19.309Z,99.90
2018-08-18T01:46:46.778Z,99.90
2018-08-18T01:49:33.845Z,99.90
2018-08-18T01:52:03.038Z,99.90
2018-08-18T01:54:30.677Z,99.90
2018-08-18T01:57:05.546Z,99.90
2018-08-18T01:59:32.961Z,99.90
2018-08-18T02:02:00.352Z,99.90
2018-08-18T02:04:27.767Z,99.90
2018-08-18T02:06:56.085Z,99.90
2018-08-18T02:09:23.462Z,99.90
2018-08-18T02:13:25.140Z,99.90
2018-08-18T02:15:52.539Z,99.90
2018-08-18T02:18:19.953Z,99.90
2018-08-18T02:20:48.028Z,99.90
2018-08-18T02:23:15.417Z,99.90
2018-08-18T02:25:42.839Z,99.90
2018-08-18T02:28:18.821Z,99.90
2018-08-18T02:30:46.222Z,99.90
2018-08-18T02:33:13.621Z,99.90
2018-08-18T02:35:41.394Z,99.90
2018-08-18T02:38:08.777Z,99.90
2018-08-18T02:40:36.195Z,99.90
2018-08-18T02:43:08.092Z,99.90
2018-08-18T02:45:35.493Z,99.90
2018-08-18T02:48:11.913Z,99.90
2018-08-18T02:50:44.265Z,99.90
2018-08-18T02:53:19.049Z,99.90
2018-08-18T02:55:47.099Z,99.90
2018-08-18T02:58:15.181Z,99.90
2018-08-18T03:00:43.253Z,99.90
2018-08-18T03:03:11.310Z,99.90
2018-08-18T03:05:38.723Z,99.90
2018-08-18T03:08:06.143Z,99.90
2018-08-18T03:10:34.168Z,99.90
2018-08-18T03:13:01.584Z,99.90
2018-08-18T03:16:12.177Z,99.90
2018-08-18T03:18:48.753Z,99.90
2018-08-18T03:21:17.052Z,99.90
2018-08-18T03:23:50.125Z,99.90
2018-08-18T03:26:18.810Z,99.90
2018-08-18T03:28:50.605Z,99.90
2018-08-18T03:31:18.017Z,99.90
2018-08-18T03:33:46.168Z,99.90
2018-08-18T03:37:29.165Z,99.90
2018-08-18T03:39:57.280Z,99.90
2018-08-18T03:42:30.258Z,99.90
2018-08-18T03:44:57.664Z,99.90
2018-08-18T03:47:25.995Z,99.90
2018-08-18T03:49:54.063Z,99.90
2018-08-18T03:52:22.174Z,99.90
2018-08-18T03:54:50.170Z,99.90
2018-08-18T03:57:18.322Z,99.90
2018-08-18T03:59:46.348Z,99.90
2018-08-18T04:02:13.769Z,99.90
2018-08-18T04:04:41.895Z,99.90
2018-08-18T04:07:09.676Z,99.90
2018-08-18T04:09:38.129Z,99.90
2018-08-18T04:12:06.903Z,99.90
2018-08-18T04:14:38.246Z,99.90
2018-08-18T04:17:36.818Z,99.90
2018-08-18T04:20:04.735Z,99.90
2018-08-18T04:22:32.125Z,99.90
2018-08-18T04:25:00.210Z,99.90
2018-08-18T04:27:35.345Z,99.90
2018-08-18T04:30:04.458Z,99.90
2018-08-18T04:32:33.789Z,99.90
2018-08-18T04:35:01.852Z,99.90
2018-08-18T04:37:29.920Z,99.90
2018-08-18T04:39:57.334Z,99.90
2018-08-18T04:42:25.406Z,99.90
2018-08-18T04:44:53.462Z,99.90
2018-08-18T04:47:28.077Z,99.90
2018-08-18T04:49:56.130Z,99.90
2018-08-18T04:52:24.193Z,99.90
2018-08-18T04:54:52.261Z,99.90
2018-08-18T04:57:20.318Z,99.90
2018-08-18T04:59:48.386Z,99.90
2018-08-18T05:02:16.050Z,99.90
2018-08-18T05:04:44.113Z,99.90
2018-08-18T05:07:12.154Z,99.90
2018-08-18T05:09:40.210Z,99.90
2018-08-18T05:12:07.617Z,99.90
2018-08-18T05:14:35.685Z,99.90
2018-08-18T05:17:03.741Z,99.90
2018-08-18T05:19:31.146Z,99.90
2018-08-18T05:21:59.218Z,99.90
2018-08-18T05:24:30.195Z,99.90
2018-08-18T05:26:58.665Z,99.90
2018-08-18T05:29:26.063Z,99.90
2018-08-18T05:31:53.478Z,99.90
2018-08-18T05:34:20.869Z,99.90
2018-08-18T05:36:48.276Z,99.90
2018-08-18T05:39:15.649Z,99.90
2018-08-18T05:41:43.082Z,99.90
2018-08-18T05:44:10.506Z,99.90
2018-08-18T05:46:37.918Z,99.90
2018-08-18T05:49:09.630Z,99.90
2018-08-18T05:51:43.832Z,99.90
2018-08-18T05:54:13.421Z,99.90
2018-08-18T05:56:40.805Z,99.90
2018-08-18T05:59:08.201Z,99.90
2018-08-18T06:01:37.073Z,99.90
2018-08-18T06:04:10.338Z,99.90
2018-08-18T06:06:38.118Z,99.90
2018-08-18T06:09:06.501Z,99.90
2018-08-18T06:11:34.021Z,99.90
2018-08-18T06:14:01.422Z,99.90
2018-08-18T06:16:28.800Z,99.90
2018-08-18T06:18:56.189Z,99.90
2018-08-18T06:21:23.593Z,99.90
2018-08-18T06:23:50.989Z,99.90
2018-08-18T06:26:18.382Z,99.90
2018-08-18T06:28:45.762Z,99.90
2018-08-18T06:31:13.143Z,99.90
2018-08-18T06:33:40.563Z,99.90
2018-08-18T06:36:07.937Z,99.90
2018-08-18T06:38:35.350Z,99.90
2018-08-18T06:41:03.330Z,99.90
2018-08-18T06:43:32.705Z,99.90
2018-08-18T06:46:00.433Z,99.90
2018-08-18T06:48:32.883Z,99.90
2018-08-18T06:51:00.305Z,99.90
2018-08-18T06:53:28.513Z,99.90
2018-08-18T06:55:57.046Z,99.90
2018-08-18T06:58:24.424Z,99.90
2018-08-18T07:00:51.823Z,99.90
2018-08-18T07:03:24.886Z,99.90
2018-08-18T07:05:52.444Z,99.90
2018-08-18T07:08:19.846Z,99.90
2018-08-18T07:10:47.224Z,99.90
2018-08-18T07:13:14.647Z,99.90
2018-08-18T07:15:43.349Z,99.90
2018-08-18T07:18:12.141Z,99.90
2018-08-18T07:20:39.628Z,99.90
2018-08-18T07:23:07.209Z,99.90
2018-08-18T07:25:47.191Z,99.90
2018-08-18T07:28:14.632Z,99.90
2018-08-18T07:30:41.961Z,99.90
2018-08-18T07:33:09.373Z,99.90
2018-08-18T07:35:36.774Z,99.90
2018-08-18T07:38:04.917Z,99.90
2018-08-18T07:40:45.617Z,99.90
2018-08-18T07:43:13.544Z,99.90
2018-08-18T07:45:40.948Z,99.90
2018-08-18T07:48:08.450Z,99.90
2018-08-18T07:50:35.772Z,99.90
2018-08-18T07:53:04.050Z,99.90
2018-08-18T07:55:31.689Z,99.90
2018-08-18T07:58:00.988Z,99.90
2018-08-18T08:00:29.465Z,99.90
2018-08-18T08:02:57.822Z,99.90
2018-08-18T08:05:25.869Z,99.90
2018-08-18T08:07:53.917Z,99.90
2018-08-18T08:10:21.353Z,99.90
2018-08-18T08:12:48.866Z,99.90
2018-08-18T08:15:16.898Z,99.90
2018-08-18T08:17:45.963Z,99.90
2018-08-18T08:20:13.661Z,99.90
2018-08-18T08:22:41.745Z,99.90
2018-08-18T08:25:10.498Z,99.90
2018-08-18T08:27:38.025Z,99.90
2018-08-18T08:30:05.886Z,99.90
2018-08-18T08:32:33.286Z,99.90
2018-08-18T08:35:01.875Z,99.90
2018-08-18T08:37:29.493Z,99.90
2018-08-18T08:39:57.238Z,99.90
2018-08-18T08:42:24.661Z,99.90
2018-08-18T08:44:53.713Z,99.90
2018-08-18T08:47:21.101Z,99.90
2018-08-18T08:49:48.501Z,99.90
2018-08-18T08:52:15.906Z,99.90
2018-08-18T08:54:43.326Z,99.90
2018-08-18T08:57:11.181Z,99.90
2018-08-18T08:59:40.766Z,99.90
2018-08-18T09:02:10.629Z,99.90
2018-08-18T09:04:38.523Z,99.90
2018-08-18T09:07:09.296Z,99.90
2018-08-18T09:09:37.358Z,99.90
2018-08-18T09:12:04.738Z,99.90
2018-08-18T09:14:32.196Z,99.90
2018-08-18T09:16:59.637Z,99.90
2018-08-18T09:19:27.054Z,99.90
2018-08-18T09:21:59.605Z,99.90
2018-08-18T09:24:28.873Z,99.90
2018-08-18T09:26:58.487Z,99.90
2018-08-18T09:29:26.766Z,99.90
2018-08-18T09:31:54.313Z,99.90
2018-08-18T09:34:21.750Z,99.90
2018-08-18T09:36:49.325Z,99.90
2018-08-18T09:39:22.795Z,99.90
2018-08-18T09:41:50.409Z,99.90
2018-08-18T09:44:23.407Z,99.90
2018-08-18T09:46:51.599Z,99.90
2018-08-18T09:49:19.670Z,99.90
2018-08-18T09:51:47.715Z,99.90
2018-08-18T09:54:15.790Z,99.90
2018-08-18T09:56:43.197Z,99.90
2018-08-18T09:59:10.567Z,99.90
2018-08-18T10:01:38.151Z,99.90
2018-08-18T10:04:06.283Z,99.90
2018-08-18T10:06:33.700Z,99.90
2018-08-18T10:09:01.046Z,99.90
2018-08-18T10:11:28.453Z,99.90
2018-08-18T10:13:56.538Z,99.90
2018-08-18T10:16:24.333Z,99.90
2018-08-18T10:18:51.753Z,99.90
2018-08-18T10:21:19.145Z,99.90
2018-08-18T10:23:46.577Z,99.90
2018-08-18T10:26:13.998Z,99.90
2018-08-18T10:28:41.557Z,99.90
2018-08-18T10:31:09.180Z,99.90
2018-08-18T10:33:36.573Z,99.90
2018-08-18T10:36:04.161Z,99.90
2018-08-18T10:38:31.561Z,99.90
2018-08-18T10:41:00.734Z,99.90
2018-08-18T10:43:28.270Z,99.90
2018-08-18T10:45:55.681Z,99.90
2018-08-18T10:48:23.077Z,99.90
2018-08-18T10:51:25.691Z,99.90
2018-08-18T10:53:53.842Z,99.90
2018-08-18T10:56:21.698Z,99.90
2018-08-18T10:58:58.038Z,99.90
2018-08-18T11:01:25.433Z,99.90
2018-08-18T11:03:52.884Z,99.90
2018-08-18T11:06:24.575Z,99.90
2018-08-18T11:08:51.994Z,99.90
2018-08-18T11:11:19.390Z,99.90
2018-08-18T11:13:46.790Z,99.90
2018-08-18T11:16:15.541Z,99.90
2018-08-18T11:18:42.954Z,99.90
2018-08-18T11:21:10.342Z,99.90
2018-08-18T11:23:37.726Z,99.90
2018-08-18T11:26:05.127Z,99.90
2018-08-18T11:28:32.549Z,99.90
2018-08-18T11:30:59.920Z,99.90
2018-08-18T11:33:43.422Z,99.90
2018-08-18T11:36:11.565Z,99.90
2018-08-18T11:38:38.952Z,99.90
2018-08-18T11:41:06.341Z,99.90
2018-08-18T11:43:35.092Z,99.50
2018-08-18T11:46:02.497Z,99.10
2018-08-18T11:48:29.881Z,99.50
2018-08-18T11:50:57.495Z,98.80
2018-08-18T11:53:24.869Z,98.30
2018-08-18T11:55:52.257Z,98.00
2018-08-18T11:58:20.685Z,96.70
2018-08-18T12:00:49.470Z,97.20
2018-08-18T12:03:20.694Z,97.10
2018-08-18T12:05:49.263Z,97.00
2018-08-18T12:08:17.829Z,96.90
2018-08-18T12:10:45.662Z,96.10
2018-08-18T12:13:13.137Z,97.10
2018-08-18T12:15:50.841Z,96.20
2018-08-18T12:18:18.226Z,96.10
2018-08-18T12:20:45.614Z,95.10
2018-08-18T12:23:13.060Z,93.10
2018-08-18T12:25:40.453Z,93.10
2018-08-18T12:28:07.834Z,92.10
2018-08-18T12:30:35.218Z,92.60
2018-08-18T12:33:15.889Z,92.20
2018-08-18T12:35:43.267Z,91.90
2018-08-18T12:38:10.650Z,92.30
2018-08-18T12:40:38.189Z,91.10
2018-08-18T12:43:06.203Z,91.10
2018-08-18T12:45:33.583Z,91.60
2018-08-18T12:48:03.674Z,90.50
2018-08-18T12:50:31.031Z,89.00
2018-08-18T12:52:58.413Z,87.60
2018-08-18T12:55:25.806Z,86.40
2018-08-18T12:57:53.207Z,86.40
2018-08-18T13:00:20.585Z,84.30
2018-08-18T13:02:50.720Z,83.70
2018-08-18T13:05:19.917Z,80.40
2018-08-18T13:07:47.295Z,80.60
2018-08-18T13:10:24.209Z,83.60
2018-08-18T13:12:52.403Z,79.70
2018-08-18T13:15:19.981Z,77.40
2018-08-18T13:17:47.362Z,79.00
2018-08-18T13:20:19.482Z,79.90
2018-08-18T13:22:46.973Z,77.50
2018-08-18T13:25:14.363Z,78.40
2018-08-18T13:27:48.246Z,81.90
2018-08-18T13:30:16.266Z,78.90
2018-08-18T13:32:44.319Z,78.50
2018-08-18T13:35:11.710Z,76.30
2018-08-18T13:37:39.094Z,74.70
2018-08-18T13:40:09.090Z,75.20
2018-08-18T13:42:36.466Z,74.10
2018-08-18T13:45:03.853Z,75.20
2018-08-18T13:47:31.229Z,73.60
2018-08-18T13:50:02.965Z,73.80
2018-08-18T13:52:34.700Z,73.00
2018-08-18T13:55:03.099Z,72.10
2018-08-18T13:57:32.529Z,75.60
2018-08-18T14:00:01.211Z,70.50
2018-08-18T14:02:29.239Z,71.70
2018-08-18T14:09:56.581Z,70.50
2018-08-18T14:12:23.996Z,71.70
2018-08-18T14:14:51.351Z,70.80
2018-08-18T14:17:20.178Z,71.20
2018-08-18T14:19:47.699Z,69.10
2018-08-18T14:22:17.137Z,70.40
2018-08-18T14:24:44.516Z,71.10
2018-08-18T14:27:16.527Z,72.20
2018-08-18T14:29:43.921Z,71.10
2018-08-18T14:32:17.629Z,72.00
2018-08-18T14:34:49.762Z,71.10
2018-08-18T14:37:17.132Z,72.00
2018-08-18T14:39:44.529Z,71.40
2018-08-18T14:42:11.929Z,72.30
2018-08-18T14:44:40.039Z,69.80
2018-08-18T14:47:08.021Z,70.90
2018-08-18T14:49:36.108Z,70.00
2018-08-18T14:52:04.158Z,67.60
2018-08-18T14:54:32.723Z,70.40
2018-08-18T14:57:02.987Z,69.90
2018-08-18T14:59:34.721Z,69.10
2018-08-18T15:02:03.705Z,70.00
2018-08-18T15:04:32.239Z,69.60
2018-08-18T15:07:00.271Z,68.30
2018-08-18T15:09:33.337Z,69.30
2018-08-18T15:12:01.775Z,68.70
2018-08-18T15:14:29.613Z,70.00
2018-08-18T15:16:57.010Z,70.80
2018-08-18T15:19:24.389Z,70.60
2018-08-18T15:21:52.973Z,71.60
2018-08-18T15:24:20.357Z,70.90
2018-08-18T15:26:47.737Z,70.80
2018-08-18T15:29:16.168Z,71.30
2018-08-18T15:31:45.168Z,71.10
2018-08-18T15:34:12.541Z,69.40
2018-08-18T15:36:39.949Z,70.00
2018-08-18T15:39:07.530Z,71.90
2018-08-18T15:41:34.954Z,71.30
2018-08-18T15:44:04.689Z,71.10
2018-08-18T15:46:32.081Z,72.30
2018-08-18T15:48:59.465Z,71.60
2018-08-18T15:51:26.853Z,72.30
2018-08-18T15:53:55.345Z,71.50
2018-08-18T15:56:23.488Z,70.80
2018-08-18T15:58:51.460Z,70.20
2018-08-18T16:01:21.183Z,70.70
2018-08-18T16:03:48.570Z,70.90
2018-08-18T16:06:15.947Z,71.60
2018-08-18T16:08:43.358Z,71.00
2018-08-18T16:11:11.369Z,72.00
2018-08-18T16:13:38.779Z,71.80
2018-08-18T16:16:06.232Z,72.20
2018-08-18T16:18:34.262Z,72.90
2018-08-18T16:21:06.874Z,72.00
2018-08-18T16:23:34.245Z,72.60
2018-08-18T16:26:01.620Z,72.60
2018-08-18T16:28:33.557Z,72.90
2018-08-18T16:31:01.598Z,74.00
2018-08-18T16:33:29.910Z,73.50
2018-08-18T16:35:57.945Z,73.40
2018-08-18T16:38:25.991Z,74.00
2018-08-18T16:40:54.010Z,73.00
2018-08-18T16:43:22.057Z,72.40
2018-08-18T16:45:49.441Z,72.60
2018-08-18T16:48:16.845Z,72.80
2018-08-18T16:50:44.226Z,72.60
2018-08-18T16:53:13.252Z,73.30
2018-08-18T16:55:44.486Z,73.60
2018-08-18T16:58:12.569Z,75.60
2018-08-18T17:00:57.598Z,75.30
2018-08-18T17:03:30.277Z,75.20
2018-08-18T17:05:57.989Z,74.70
2018-08-18T17:08:26.166Z,75.00
2018-08-18T17:10:53.524Z,75.80
2018-08-18T17:13:20.910Z,76.10
2018-08-18T17:15:49.520Z,77.00
2018-08-18T17:18:16.913Z,76.80
2018-08-18T17:20:53.341Z,77.00
2018-08-18T17:23:20.724Z,77.60
2018-08-18T17:25:48.754Z,78.80
2018-08-18T17:28:16.129Z,79.40
2018-08-18T17:30:43.626Z,79.50
2018-08-18T17:33:11.890Z,79.30
2018-08-18T17:35:39.303Z,80.70
2018-08-18T17:38:06.683Z,81.50
2018-08-18T17:40:34.748Z,81.90
2018-08-18T17:43:02.129Z,82.60
2018-08-18T17:45:30.675Z,83.40
2018-08-18T17:47:58.066Z,83.40
2018-08-18T17:50:25.465Z,83.80
2018-08-18T17:52:52.857Z,83.60
2018-08-18T17:55:20.266Z,84.00
2018-08-18T17:57:47.670Z,84.70
2018-08-18T18:00:16.247Z,85.20
2018-08-18T18:02:49.357Z,85.70
2018-08-18T18:05:20.315Z,86.80
2018-08-18T18:07:51.426Z,87.90
2018-08-18T18:10:19.878Z,86.90
2018-08-18T18:12:47.915Z,87.80
2018-08-18T18:15:27.401Z,88.20
2018-08-18T18:17:54.847Z,88.50
2018-08-18T18:20:22.834Z,88.90
2018-08-18T18:22:50.971Z,89.60
2018-08-18T18:25:18.675Z,90.20
2018-08-18T18:27:46.425Z,90.50
2018-08-18T18:30:14.523Z,90.80
2018-08-18T18:32:41.921Z,91.10
2018-08-18T18:35:09.311Z,91.60
2018-08-18T18:37:37.383Z,92.10
2018-08-18T18:40:09.010Z,92.50
2018-08-18T18:42:37.053Z,92.90
2018-08-18T18:45:04.825Z,93.20
2018-08-18T18:47:32.863Z,93.50
2018-08-18T18:50:00.245Z,93.50
2018-08-18T18:52:28.291Z,93.80
2018-08-18T18:54:55.830Z,94.40
2018-08-18T18:57:24.102Z,94.50
2018-08-18T18:59:56.221Z,94.90
2018-08-18T19:02:25.430Z,94.80
2018-08-18T19:04:52.910Z,95.20
2018-08-18T19:07:20.349Z,95.40
2018-08-18T19:09:48.507Z,95.80
2018-08-18T19:12:16.890Z,95.90
2018-08-18T19:14:44.249Z,95.90
2018-08-18T19:17:12.305Z,96.20
2018-08-18T19:19:39.757Z,96.40
2018-08-18T19:22:07.921Z,96.60
2018-08-18T19:24:35.417Z,96.80
2018-08-18T19:27:02.861Z,97.20
2018-08-18T19:29:30.254Z,97.30
2018-08-18T19:31:58.884Z,97.60
2018-08-18T19:34:26.319Z,97.90
2018-08-18T19:36:57.569Z,98.70
2018-08-18T19:39:26.703Z,98.20
2018-08-18T19:42:14.067Z,98.50
2018-08-18T19:44:44.530Z,98.90
2018-08-18T19:47:12.058Z,99.40
2018-08-18T19:49:41.965Z,99.70
2018-08-18T19:52:11.649Z,99.60
2018-08-18T19:54:41.830Z,99.90
2018-08-18T19:57:09.532Z,99.90
2018-08-18T19:59:36.928Z,99.90
2018-08-18T20:02:05.074Z,99.90
2018-08-18T20:04:32.457Z,99.90
2018-08-18T20:06:59.860Z,99.90
2018-08-18T20:09:27.903Z,99.90
2018-08-18T20:11:56.070Z,99.90
2018-08-18T20:14:23.453Z,99.90
2018-08-18T20:16:51.493Z,99.90
2018-08-18T20:19:18.868Z,99.90
2018-08-18T20:21:46.931Z,99.90
2018-08-18T20:24:14.289Z,99.90
2018-08-18T20:26:41.675Z,99.90
2018-08-18T20:29:09.729Z,99.90
2018-08-18T20:31:41.468Z,99.90
2018-08-18T20:34:09.537Z,99.90
2018-08-18T20:36:36.945Z,99.90
2018-08-18T20:39:05.898Z,99.90
2018-08-18T20:41:33.299Z,99.90
2018-08-18T20:44:00.697Z,99.90
2018-08-18T20:46:28.086Z,99.90
2018-08-18T20:48:55.523Z,99.90
2018-08-18T20:51:28.261Z,99.90
2018-08-18T20:53:56.292Z,99.90
2018-08-18T20:56:23.673Z,99.90
2018-08-18T20:58:51.727Z,99.90
2018-08-18T21:01:19.799Z,99.90
2018-08-18T21:03:49.787Z,99.90
2018-08-18T21:06:18.630Z,99.90
2018-08-18T21:08:46.682Z,99.90
2018-08-18T21:11:14.390Z,99.90
2018-08-18T21:13:42.434Z,99.90
2018-08-18T21:16:10.514Z,99.90
2018-08-18T21:18:37.905Z,99.90
2018-08-18T21:21:17.025Z,99.90
2018-08-18T21:23:44.429Z,99.90
2018-08-18T21:26:12.489Z,99.90
2018-08-18T21:28:40.521Z,99.90
2018-08-18T21:31:08.587Z,99.90
2018-08-18T21:33:35.991Z,99.90
2018-08-18T21:36:04.031Z,99.90
2018-08-18T21:38:32.082Z,99.90
2018-08-18T21:41:00.118Z,99.90
2018-08-18T21:43:30.233Z,99.90
2018-08-18T21:45:58.268Z,99.90
2018-08-18T21:48:38.318Z,99.90
2018-08-18T21:51:06.364Z,99.90
2018-08-18T21:53:34.414Z,99.90
2018-08-18T21:56:02.587Z,99.90
2018-08-18T21:58:29.977Z,99.90
2018-08-18T22:01:03.545Z,99.90
2018-08-18T22:03:30.959Z,99.90
2018-08-18T22:05:58.345Z,99.90
2018-08-18T22:08:25.728Z,99.90
2018-08-18T22:10:55.480Z,99.90
2018-08-18T22:13:23.063Z,99.90
2018-08-18T22:15:50.473Z,99.90
2018-08-18T22:18:17.873Z,99.90
2018-08-18T22:20:45.317Z,99.90
2018-08-18T22:23:12.742Z,99.90
2018-08-18T22:25:40.148Z,99.90
2018-08-18T22:28:07.550Z,99.90
2018-08-18T22:30:34.942Z,99.90
2018-08-18T22:33:02.375Z,99.90
2018-08-18T22:35:29.750Z,99.90
2018-08-18T22:37:57.121Z,99.90
2018-08-18T22:40:24.513Z,99.90
2018-08-18T22:42:51.894Z,99.90
2018-08-18T22:45:20.549Z,99.90
2018-08-18T22:47:48.607Z,99.90
2018-08-18T22:50:15.997Z,99.90
2018-08-18T22:52:43.796Z,99.90
2018-08-18T22:55:11.198Z,99.90
2018-08-18T22:57:39.672Z,99.90
2018-08-18T23:00:07.081Z,99.90
2018-08-18T23:02:34.517Z,99.90
2018-08-18T23:05:01.954Z,99.90
2018-08-18T23:07:29.354Z,99.90
2018-08-18T23:09:56.754Z,99.90
2018-08-18T23:12:24.154Z,99.90
2018-08-18T23:14:51.546Z,99.90
2018-08-18T23:17:18.929Z,99.90
2018-08-18T23:19:46.361Z,99.90
2018-08-18T23:22:25.733Z,99.90
2018-08-18T23:24:53.126Z,99.90
2018-08-18T23:27:21.161Z,99.90
2018-08-18T23:29:49.207Z,99.90
2018-08-18T23:32:21.796Z,99.90
2018-08-18T23:34:50.534Z,99.90
2018-08-18T23:37:20.185Z,99.90
2018-08-18T23:39:52.026Z,99.90
2018-08-18T23:42:21.589Z,99.90
2018-08-18T23:44:49.872Z,99.90
2018-08-18T23:47:18.330Z,99.90
2018-08-18T23:49:48.487Z,99.90
2018-08-18T23:52:16.692Z,99.90
2018-08-18T23:54:46.625Z,99.90
2018-08-18T23:57:17.917Z,99.90
2018-08-18T23:59:45.497Z,99.90
